Time;durP1;ratioP1;P1;durP2;ratioP2;P2;SDS_P1;SDS_P2;PMS_P1;PMS_P2;Temp;Humidity;BMP_temperature;BMP_pressure;BME280_temperature;BME280_humidity;BME280_pressure;Samples;Min_cycle;Max_cycle;Signal;HPM_P1;HPM_P2
2023/09/02 00:00:00;;;;;;;;;2.00;2.00;;;;;21.38;55.52;101042.50;5081002;27;45282;-63
2023/09/02 00:02:25;;;;;;;;;4.00;4.00;;;;;21.35;55.30;101040.00;5080924;27;45172;-63
2023/09/02 00:04:50;;;;;;;;;5.00;4.00;;;;;21.35;55.66;101045.34;5080702;27;45419;-63
2023/09/02 00:07:15;;;;;;;;;6.25;3.75;;;;;21.32;55.55;101045.50;5080331;28;61457;-63
2023/09/02 00:09:41;;;;;;;;;4.00;4.00;;;;;21.33;55.20;101051.72;5080673;27;45784;-63
2023/09/02 00:12:07;;;;;;;;;5.00;4.50;;;;;21.28;55.67;101043.94;5080905;27;45386;-63
2023/09/02 00:14:32;;;;;;;;;5.00;3.75;;;;;21.26;55.58;101040.50;5081004;27;45359;-63
2023/09/02 00:16:58;;;;;;;;;4.50;3.00;;;;;21.26;55.80;101045.84;5080589;27;46527;-63
2023/09/02 00:19:23;;;;;;;;;7.75;6.00;;;;;21.24;55.73;101043.25;5080474;27;45373;-63
2023/09/02 00:21:48;;;;;;;;;8.25;7.75;;;;;21.23;55.41;101048.66;5080796;27;45329;-63
2023/09/02 00:24:14;;;;;;;;;9.00;9.00;;;;;21.21;55.37;101048.75;5080060;28;47213;-63
2023/09/02 00:26:39;;;;;;;;;6.50;5.50;;;;;21.20;55.81;101048.84;5080397;27;45434;-63
2023/09/02 00:29:05;;;;;;;;;2.00;2.00;;;;;21.20;55.81;101054.19;5080419;27;45303;-63
2023/09/02 00:31:30;;;;;;;;;4.50;3.00;;;;;21.18;55.79;101051.59;5080277;27;45248;-63
2023/09/02 00:33:56;;;;;;;;;3.25;3.25;;;;;21.14;55.61;101046.50;5080499;28;45528;-63
2023/09/02 00:36:21;;;;;;;;;4.50;4.00;;;;;21.14;55.84;101059.88;5080507;27;46222;-63
2023/09/02 00:38:48;;;;;;;;;4.75;4.75;;;;;21.08;55.61;101045.00;5080391;27;45239;-63
2023/09/02 00:41:25;;;;;;;;;5.00;4.00;;;;;21.10;55.46;101048.47;5113368;27;45352;-63
2023/09/02 00:43:50;;;;;;;;;7.25;4.75;;;;;21.08;55.67;101056.56;5080130;27;45228;-63
2023/09/02 00:46:15;;;;;;;;;5.50;5.50;;;;;21.07;55.95;101054.00;5079643;27;52806;-63
2023/09/02 00:48:41;;;;;;;;;4.50;4.25;;;;;21.05;55.29;101054.06;5080274;27;45384;-63
2023/09/02 00:51:07;;;;;;;;;5.25;5.25;;;;;21.03;55.39;101049.75;5080324;27;45358;-63
2023/09/02 00:53:32;;;;;;;;;7.50;5.50;;;;;21.00;55.96;101053.44;5080164;27;45424;-63
2023/09/02 00:55:57;;;;;;;;;4.00;3.25;;;;;20.99;55.89;101051.72;5095986;27;46073;-63
2023/09/02 00:58:22;;;;;;;;;5.50;4.25;;;;;20.96;55.88;101046.53;5083831;27;45318;-63
2023/09/02 01:00:48;;;;;;;;;6.00;4.00;;;;;20.96;55.88;101059.91;5084046;27;45399;-63
2023/09/02 01:03:14;;;;;;;;;5.00;4.75;;;;;20.94;55.50;101056.44;5083415;27;45415;-63
2023/09/02 01:05:40;;;;;;;;;5.50;4.00;;;;;20.93;55.62;101054.72;5083744;27;45328;-63
2023/09/02 01:08:06;;;;;;;;;4.50;4.25;;;;;20.91;56.18;101060.13;5083480;27;45250;-63
2023/09/02 01:10:37;;;;;;;;;4.00;3.00;;;;;20.86;56.21;101062.19;5083713;27;45301;-63
2023/09/02 01:13:03;;;;;;;;;5.00;5.00;;;;;20.88;56.18;101059.41;5083476;27;45449;-63
2023/09/02 01:15:30;;;;;;;;;3.00;3.00;;;;;20.86;56.06;101058.66;5083654;27;45387;-63
2023/09/02 01:17:55;;;;;;;;;3.00;3.00;;;;;20.84;55.71;101061.41;5083148;28;45522;-63
2023/09/02 01:20:24;;;;;;;;;3.50;3.50;;;;;20.84;55.67;101068.53;5083746;28;45299;-63
2023/09/02 01:22:55;;;;;;;;;5.50;4.00;;;;;20.81;55.62;101060.72;5083374;27;45579;-63
2023/09/02 01:26:06;;;;;;;;;3.00;3.00;;;;;20.80;55.88;101054.50;5083002;27;45611;-63
2023/09/02 01:28:40;;;;;;;;;4.00;4.00;;;;;20.75;56.06;101052.09;5082191;27;45282;-63
2023/09/02 01:31:08;;;;;;;;;3.50;3.00;;;;;20.75;55.87;101062.75;5083035;27;45224;-63
2023/09/02 01:33:36;;;;;;;;;3.00;3.00;;;;;20.74;56.20;101053.00;5083053;28;45334;-63
2023/09/02 01:36:03;;;;;;;;;7.00;3.25;;;;;20.72;56.04;101060.22;5081500;28;47286;-63
2023/09/02 01:38:31;;;;;;;;;4.00;4.00;;;;;20.70;55.97;101063.91;5083091;28;45178;-63
2023/09/02 01:41:00;;;;;;;;;3.25;3.25;;;;;20.69;56.31;101062.16;5083034;27;45351;-63
2023/09/02 01:43:29;;;;;;;;;3.00;3.00;;;;;20.68;56.16;101066.66;5115727;27;45354;-63
2023/09/02 01:45:56;;;;;;;;;4.50;4.50;;;;;20.67;56.01;101059.56;5082754;28;46379;-63
2023/09/02 01:48:21;;;;;;;;;4.00;4.00;;;;;20.63;56.55;101055.34;5082830;27;45279;-63
2023/09/02 01:50:48;;;;;;;;;6.50;4.25;;;;;20.64;56.26;101054.41;5082830;28;45467;-63
2023/09/02 01:53:14;;;;;;;;;4.75;4.75;;;;;20.63;55.98;101047.34;5082698;27;45259;-63
2023/09/02 01:55:41;;;;;;;;;4.25;3.00;;;;;20.61;55.85;101046.53;5082359;27;45263;-63
2023/09/02 01:58:06;;;;;;;;;5.00;5.00;;;;;20.60;55.93;101039.47;5082698;27;45430;-63
2023/09/02 02:00:31;;;;;;;;;4.00;3.75;;;;;20.56;56.54;101033.41;5082919;27;45615;-63
2023/09/02 02:02:58;;;;;;;;;5.00;3.00;;;;;20.56;56.05;101033.41;5082601;27;45526;-63
2023/09/02 02:05:36;;;;;;;;;2.00;2.00;;;;;20.56;56.61;101029.91;5082509;28;46084;-63
2023/09/02 02:08:10;;;;;;;;;2.75;2.50;;;;;20.54;56.44;101027.31;5081250;27;45295;-63
2023/09/02 02:10:38;;;;;;;;;3.75;3.75;;;;;20.51;56.49;101029.28;5082586;27;45140;-63
2023/09/02 02:13:05;;;;;;;;;5.25;3.25;;;;;20.50;56.56;101027.53;5081870;27;45311;-63
2023/09/02 02:15:31;;;;;;;;;5.75;5.50;;;;;20.47;56.72;101020.56;5082478;27;47182;-63
2023/09/02 02:17:56;;;;;;;;;5.00;5.00;;;;;20.44;56.13;101015.41;5082289;27;45370;-63
2023/09/02 02:20:21;;;;;;;;;4.75;4.75;;;;;20.44;56.23;101018.06;5082786;27;45383;-63
2023/09/02 02:22:47;;;;;;;;;4.00;4.00;;;;;20.42;56.77;101012.78;5082510;28;45288;-63
2023/09/02 02:25:12;;;;;;;;;4.00;4.00;;;;;20.40;56.71;101017.34;5082019;27;45606;-63
2023/09/02 02:27:37;;;;;;;;;4.00;3.00;;;;;20.39;56.65;101012.94;5082330;27;45165;-63
2023/09/02 02:30:03;;;;;;;;;3.00;3.00;;;;;20.37;56.40;101016.66;5082532;27;45293;-63
2023/09/02 02:32:28;;;;;;;;;3.50;3.25;;;;;20.36;56.46;101014.91;5081789;28;45508;-63
2023/09/02 02:34:54;;;;;;;;;4.25;2.25;;;;;20.34;56.15;101024.78;5082225;27;46045;-63
2023/09/02 02:37:20;;;;;;;;;3.00;3.00;;;;;20.33;56.45;101031.94;5115135;27;45375;-63
2023/09/02 02:39:45;;;;;;;;;3.00;3.00;;;;;20.30;56.92;101034.75;5082753;27;45271;-63
2023/09/02 02:42:11;;;;;;;;;2.00;2.00;;;;;20.28;56.88;101032.16;5081779;27;45199;-63
2023/09/02 02:44:36;;;;;;;;;2.50;2.00;;;;;20.25;56.45;101036.78;5082240;27;45231;-62
2023/09/02 02:47:02;;;;;;;;;2.00;2.00;;;;;20.24;56.88;101040.41;5081703;27;45417;-63
2023/09/02 02:49:27;;;;;;;;;5.00;3.75;;;;;20.22;56.43;101032.47;5082438;27;45429;-63
2023/09/02 02:51:53;;;;;;;;;3.00;2.25;;;;;20.21;57.00;101032.56;5081973;27;45339;-63
2023/09/02 02:54:18;;;;;;;;;5.75;4.00;;;;;20.19;56.44;101029.97;5081909;27;45437;-63
2023/09/02 02:56:44;;;;;;;;;3.25;3.00;;;;;20.18;56.68;101030.91;5081541;27;45268;-63
2023/09/02 02:59:09;;;;;;;;;2.00;2.00;;;;;20.16;57.05;101032.78;5082147;27;45336;-63
2023/09/02 03:01:34;;;;;;;;;3.25;2.25;;;;;20.14;56.42;101024.00;5081827;27;45412;-63
2023/09/02 03:04:00;;;;;;;;;2.00;2.00;;;;;20.14;56.61;101022.19;5081888;27;47212;-63
2023/09/02 03:06:25;;;;;;;;;2.50;2.50;;;;;20.13;56.72;101027.59;5081763;28;45379;-63
2023/09/02 03:08:51;;;;;;;;;3.00;3.00;;;;;20.11;56.87;101030.34;5082113;27;45308;-63
2023/09/02 03:11:16;;;;;;;;;3.50;2.00;;;;;20.12;56.74;101045.44;5081400;27;45464;-62
2023/09/02 03:13:41;;;;;;;;;1.75;1.75;;;;;20.12;57.07;101044.53;5081731;28;46243;-63
2023/09/02 03:16:07;;;;;;;;;3.00;1.00;;;;;20.10;56.99;101039.28;5081421;27;45212;-63
2023/09/02 03:18:32;;;;;;;;;2.00;2.00;;;;;20.04;57.03;101026.25;5080098;28;50786;-63
2023/09/02 03:21:03;;;;;;;;;1.75;1.75;;;;;20.09;56.43;101034.91;5081223;28;45294;-63
2023/09/02 03:23:28;;;;;;;;;3.75;2.00;;;;;20.05;57.09;101030.66;5081595;28;45409;-63
2023/09/02 03:25:53;;;;;;;;;3.50;2.25;;;;;20.05;57.01;101046.66;5081018;28;45397;-63
2023/09/02 03:28:19;;;;;;;;;2.00;2.00;;;;;20.03;56.87;101048.53;5081658;28;45211;-63
2023/09/02 03:30:45;;;;;;;;;3.00;3.00;;;;;20.02;56.74;101052.13;5081331;28;45359;-63
2023/09/02 03:33:12;;;;;;;;;2.00;2.00;;;;;20.00;57.19;101053.16;5080858;27;45962;-63
2023/09/02 03:35:41;;;;;;;;;2.00;2.00;;;;;19.98;57.13;101045.22;5081195;27;45242;-63
2023/09/02 03:38:06;;;;;;;;;2.00;2.00;;;;;20.00;56.95;101047.81;5081462;27;45408;-63
2023/09/02 03:40:33;;;;;;;;;2.50;2.50;;;;;19.98;56.78;101053.22;5114246;27;45283;-63
2023/09/02 03:42:58;;;;;;;;;2.00;2.00;;;;;19.96;56.72;101060.44;5081107;27;45361;-63
2023/09/02 03:45:24;;;;;;;;;3.00;2.00;;;;;19.96;57.11;101066.66;5080949;27;45361;-63
2023/09/02 03:47:49;;;;;;;;;3.25;3.25;;;;;19.96;57.21;101079.97;5081380;27;45459;-63
2023/09/02 03:50:23;;;;;;;;;3.00;2.75;;;;;19.96;56.98;101081.75;5080581;27;51217;-63
2023/09/02 03:52:48;;;;;;;;;2.00;2.00;;;;;19.91;56.89;101071.34;5080958;27;47171;-63
2023/09/02 03:55:14;;;;;;;;;2.00;2.00;;;;;19.93;57.38;101068.59;5080391;28;50236;-63
2023/09/02 03:57:39;;;;;;;;;3.00;3.00;;;;;19.94;57.49;101075.66;5081059;27;45305;-63
2023/09/02 04:00:06;;;;;;;;;3.00;2.50;;;;;19.88;57.37;101058.13;5080533;28;52054;-63
2023/09/02 04:02:31;;;;;;;;;2.00;2.00;;;;;19.93;56.95;101063.25;5080886;27;45440;-63
2023/09/02 04:04:56;;;;;;;;;2.75;2.75;;;;;19.93;57.21;101056.09;5080211;28;54677;-63
2023/09/02 04:07:21;;;;;;;;;4.25;2.75;;;;;19.93;56.88;101044.59;5081110;27;45306;-64
2023/09/02 04:09:47;;;;;;;;;5.00;3.00;;;;;19.91;56.91;101042.00;5080707;27;45438;-63
2023/09/02 04:12:12;;;;;;;;;4.00;4.00;;;;;19.93;57.46;101047.25;5113610;27;45364;-63
2023/09/02 04:14:38;;;;;;;;;4.50;4.50;;;;;19.92;57.50;101056.19;5080455;28;54091;-63
2023/09/02 04:17:03;;;;;;;;;3.25;3.25;;;;;19.91;57.06;101058.00;5080740;27;45264;-63
2023/09/02 04:19:28;;;;;;;;;5.75;4.75;;;;;19.88;57.54;101055.47;5080544;27;45224;-63
2023/09/02 04:21:54;;;;;;;;;3.25;3.25;;;;;19.91;57.48;101062.47;5080717;27;46229;-63
2023/09/02 04:24:19;;;;;;;;;3.50;3.25;;;;;19.91;57.14;101059.78;5080312;28;45359;-63
2023/09/02 04:26:45;;;;;;;;;6.00;5.00;;;;;19.89;57.52;101051.03;5080621;27;45257;-63
2023/09/02 04:29:11;;;;;;;;;4.00;4.00;;;;;19.87;57.27;101051.06;5080734;27;45550;-63
2023/09/02 04:31:36;;;;;;;;;3.00;3.00;;;;;19.88;57.28;101051.97;5079010;28;47409;-63
2023/09/02 04:34:01;;;;;;;;;4.00;4.00;;;;;19.83;57.01;101053.97;5080357;28;45239;-63
2023/09/02 04:36:28;;;;;;;;;6.00;4.25;;;;;19.88;57.61;101065.28;5080608;27;45387;-63
2023/09/02 04:38:54;;;;;;;;;4.75;4.75;;;;;19.86;57.45;101056.50;5080261;27;45441;-63
2023/09/02 04:41:19;;;;;;;;;5.50;2.00;;;;;19.83;57.32;101045.97;5080123;28;48779;-63
2023/09/02 04:43:44;;;;;;;;;4.00;3.50;;;;;19.84;57.63;101059.22;5079919;28;48943;-63
2023/09/02 04:46:10;;;;;;;;;3.75;3.75;;;;;19.83;57.19;101059.31;5080367;27;45294;-63
2023/09/02 04:48:35;;;;;;;;;3.25;3.25;;;;;19.82;57.21;101069.06;5079741;28;54467;-63
2023/09/02 04:51:03;;;;;;;;;2.00;1.50;;;;;19.81;57.35;101057.53;5080067;27;45408;-63
2023/09/02 04:53:29;;;;;;;;;4.00;4.00;;;;;19.79;57.47;101050.56;5080162;27;45303;-63
2023/09/02 04:55:54;;;;;;;;;3.00;3.00;;;;;19.78;57.26;101051.50;5080082;27;45184;-63
2023/09/02 04:58:21;;;;;;;;;3.50;3.50;;;;;19.78;57.62;101057.69;5080259;27;45154;-63
2023/09/02 05:00:46;;;;;;;;;2.00;2.00;;;;;19.78;57.54;101059.50;5080138;27;46307;-63
2023/09/02 05:03:12;;;;;;;;;4.00;4.00;;;;;19.76;57.76;101061.34;5079924;27;45415;-63
2023/09/02 05:05:37;;;;;;;;;2.00;2.00;;;;;19.76;57.61;101070.25;5096021;27;45351;-63
2023/09/02 05:08:03;;;;;;;;;4.75;4.25;;;;;19.75;57.29;101076.50;5079986;27;45278;-63
2023/09/02 05:10:28;;;;;;;;;6.00;5.00;;;;;19.74;57.70;101072.09;5079923;27;46821;-63
2023/09/02 05:12:54;;;;;;;;;5.00;5.00;;;;;19.73;57.77;101067.69;5079686;27;45334;-63
2023/09/02 05:15:19;;;;;;;;;3.25;3.25;;;;;19.72;57.75;101063.34;5080025;27;45292;-63
2023/09/02 05:17:45;;;;;;;;;3.25;3.25;;;;;19.73;57.72;101073.03;5079765;27;45369;-63
2023/09/02 05:20:11;;;;;;;;;4.75;4.75;;;;;19.74;57.90;101074.75;5080271;27;45378;-63
2023/09/02 05:22:36;;;;;;;;;5.25;4.00;;;;;19.72;57.41;101076.66;5079736;27;45331;-63
2023/09/02 05:25:03;;;;;;;;;5.00;4.00;;;;;19.73;57.70;101072.19;5078248;28;45283;-63
2023/09/02 05:27:28;;;;;;;;;4.00;3.00;;;;;19.72;57.78;101081.13;5079774;27;45220;-63
2023/09/02 05:29:54;;;;;;;;;3.50;3.50;;;;;19.71;57.70;101090.94;5079605;28;46781;-63
2023/09/02 05:32:19;;;;;;;;;4.50;4.50;;;;;19.72;57.92;101095.31;5079185;28;45235;-63
2023/09/02 05:34:45;;;;;;;;;5.00;3.00;;;;;19.70;57.54;101082.97;5080119;27;45145;-63
2023/09/02 05:37:10;;;;;;;;;6.25;5.00;;;;;19.71;57.85;101084.72;5079753;27;45278;-63
2023/09/02 05:39:36;;;;;;;;;4.25;4.25;;;;;19.70;57.60;101097.19;5079737;27;45207;-63
2023/09/02 05:42:01;;;;;;;;;6.25;5.50;;;;;19.69;58.02;101100.78;5079517;27;45346;-63
2023/09/02 05:44:26;;;;;;;;;38.25;32.75;;;;;19.63;57.84;101099.28;5083579;27;45301;-63
2023/09/02 05:46:52;;;;;;;;;13.00;11.50;;;;;19.69;57.64;101110.59;5082768;27;45425;-63
2023/09/02 05:49:17;;;;;;;;;4.75;4.50;;;;;19.67;57.58;101118.63;5083120;27;45410;-63
2023/09/02 05:51:43;;;;;;;;;5.50;5.00;;;;;19.71;58.01;101132.69;5082922;27;45302;-63
2023/09/02 05:54:09;;;;;;;;;3.00;3.00;;;;;19.68;57.84;101127.53;5098665;27;45397;-62
2023/09/02 05:56:36;;;;;;;;;4.00;4.00;;;;;19.70;57.68;101129.19;5082807;27;45379;-62
2023/09/02 05:59:02;;;;;;;;;3.25;3.25;;;;;19.70;57.94;101129.19;5082717;27;46214;-62
2023/09/02 06:01:27;;;;;;;;;5.00;4.00;;;;;19.71;57.59;101122.91;5082578;28;45232;-63
2023/09/02 06:03:53;;;;;;;;;4.50;4.50;;;;;19.70;58.09;101121.19;5083139;27;45286;-62
2023/09/02 06:06:18;;;;;;;;;5.25;5.00;;;;;19.72;58.19;101137.09;5082939;27;45208;-63
2023/09/02 06:08:43;;;;;;;;;6.00;4.75;;;;;19.73;58.13;101125.50;5082504;27;49959;-62
2023/09/02 06:11:09;;;;;;;;;6.50;5.25;;;;;19.74;57.82;101128.09;5082535;27;45402;-62
2023/09/02 06:13:35;;;;;;;;;4.00;4.00;;;;;19.74;58.32;101127.25;5082730;27;45232;-63
2023/09/02 06:16:02;;;;;;;;;5.75;5.75;;;;;19.71;58.17;101114.91;5082425;27;45233;-63
2023/09/02 06:18:28;;;;;;;;;5.00;5.00;;;;;19.78;58.52;101127.00;5082570;27;46115;-62
2023/09/02 06:20:53;;;;;;;;;7.00;6.00;;;;;19.80;57.93;101132.28;5082451;27;45600;-62
2023/09/02 06:23:19;;;;;;;;;4.25;4.25;;;;;19.80;57.94;101130.47;5081199;28;45471;-62
2023/09/02 06:25:44;;;;;;;;;3.00;3.00;;;;;19.83;58.45;101132.16;5082170;27;45314;-63
2023/09/02 06:28:10;;;;;;;;;4.50;4.25;;;;;19.84;58.00;101135.72;5082221;28;46200;-63
2023/09/02 06:30:38;;;;;;;;;4.00;4.00;;;;;19.84;58.13;101130.38;5082360;27;45323;-62
2023/09/02 06:33:04;;;;;;;;;3.50;3.50;;;;;19.88;57.96;101134.63;5082241;28;45302;-63
2023/09/02 06:35:30;;;;;;;;;4.00;4.00;;;;;19.90;58.34;101136.28;5082093;27;45232;-62
2023/09/02 06:37:55;;;;;;;;;4.00;4.00;;;;;19.93;58.25;101132.59;5115161;27;45517;-63
2023/09/02 06:40:21;;;;;;;;;3.50;3.50;;;;;19.96;58.36;101138.66;5082081;27;45419;-62
2023/09/02 06:42:46;;;;;;;;;4.00;4.00;;;;;19.97;58.06;101127.06;5082337;27;45285;-62
2023/09/02 06:45:11;;;;;;;;;5.50;4.25;;;;;19.99;58.49;101124.31;5082099;27;45178;-62
2023/09/02 06:47:37;;;;;;;;;4.25;4.00;;;;;20.00;58.02;101126.03;5081723;27;45387;-62
2023/09/02 06:50:02;;;;;;;;;5.00;5.00;;;;;19.99;58.12;101124.31;5082063;27;45476;-62
2023/09/02 06:52:28;;;;;;;;;4.50;3.25;;;;;20.05;58.14;101131.13;5081927;27;45383;-62
2023/09/02 06:54:53;;;;;;;;;5.00;4.00;;;;;20.07;57.97;101134.59;5080683;27;52258;-63
2023/09/02 06:57:18;;;;;;;;;4.00;3.75;;;;;20.11;58.63;101139.72;5081897;27;45432;-62
2023/09/02 06:59:43;;;;;;;;;10.50;9.50;;;;;20.11;57.94;101137.06;5115020;27;45256;-62
2023/09/02 07:02:09;;;;;;;;;4.00;4.00;;;;;20.15;58.00;101137.78;5081712;27;45409;-63
2023/09/02 07:04:34;;;;;;;;;19.75;19.50;;;;;20.17;58.17;101135.88;5080140;28;50586;-63
2023/09/02 07:06:59;;;;;;;;;6.00;6.00;;;;;20.21;57.95;101141.94;5080548;28;48076;-62
2023/09/02 07:09:25;;;;;;;;;5.00;4.25;;;;;20.23;58.57;101138.25;5081765;27;45303;-63
2023/09/02 07:11:52;;;;;;;;;5.25;4.25;;;;;20.25;58.40;101148.84;5114602;27;45378;-62
2023/09/02 07:14:18;;;;;;;;;4.00;4.00;;;;;20.29;58.61;101166.47;5081570;27;45224;-63
2023/09/02 07:16:43;;;;;;;;;4.50;4.50;;;;;20.34;58.55;101168.88;5081125;27;46175;-63
2023/09/02 07:19:08;;;;;;;;;4.00;4.00;;;;;20.36;58.62;101167.03;5081617;27;45162;-63
2023/09/02 07:21:34;;;;;;;;;4.00;2.75;;;;;20.40;57.99;101168.59;5081536;27;45239;-63
2023/09/02 07:23:59;;;;;;;;;3.00;3.00;;;;;20.43;58.35;101173.81;5081309;27;45493;-62
2023/09/02 07:26:27;;;;;;;;;2.75;2.50;;;;;20.49;58.18;101177.97;5079774;28;48487;-63
2023/09/02 07:28:52;;;;;;;;;3.50;3.25;;;;;20.53;58.26;101174.22;5113752;27;45377;-63
2023/09/02 07:31:18;;;;;;;;;6.00;4.75;;;;;20.61;58.73;101172.88;5080976;27;45317;-63
2023/09/02 07:33:43;;;;;;;;;2.25;2.25;;;;;20.68;58.46;101172.56;5079895;28;47249;-63
2023/09/02 07:36:10;;;;;;;;;7.25;6.50;;;;;20.74;58.31;101166.97;5080879;27;49115;-63
2023/09/02 07:38:37;;;;;;;;;5.00;3.50;;;;;20.82;58.36;101166.56;5081373;28;45354;-62
2023/09/02 07:41:03;;;;;;;;;3.50;3.50;;;;;20.89;58.71;101170.66;5079804;28;45505;-60
2023/09/02 07:43:28;;;;;;;;;4.75;4.00;;;;;20.96;58.56;101179.25;5096748;27;45414;-60
2023/09/02 07:45:54;;;;;;;;;3.00;3.00;;;;;21.05;58.13;101192.97;5080774;28;45505;-61
2023/09/02 07:48:19;;;;;;;;;5.75;3.00;;;;;21.13;58.31;101194.41;5114144;27;45262;-61
2023/09/02 07:50:44;;;;;;;;;3.00;3.00;;;;;21.21;58.28;101202.91;5081241;27;45421;-61
2023/09/02 07:53:10;;;;;;;;;4.00;4.00;;;;;21.29;58.09;101211.38;5080913;27;45507;-61
2023/09/02 07:55:36;;;;;;;;;3.00;3.00;;;;;21.37;58.66;101222.53;5080882;27;45191;-61
2023/09/02 07:58:02;;;;;;;;;2.75;2.75;;;;;21.46;58.14;101234.56;5080993;27;45228;-61
2023/09/02 08:00:28;;;;;;;;;4.25;3.50;;;;;21.54;58.18;101236.81;5079693;28;45389;-61
2023/09/02 08:02:54;;;;;;;;;3.25;3.25;;;;;21.59;58.35;101240.16;5080657;27;45331;-61
2023/09/02 08:05:19;;;;;;;;;2.25;2.25;;;;;21.67;58.75;101237.06;5080163;27;45311;-61
2023/09/02 08:07:45;;;;;;;;;5.75;3.50;;;;;21.73;58.33;101239.41;5080172;27;45362;-61
2023/09/02 08:10:10;;;;;;;;;3.00;3.00;;;;;21.80;58.32;101237.25;5080811;27;45351;-61
2023/09/02 08:12:36;;;;;;;;;4.25;3.00;;;;;21.84;58.27;101237.03;5079232;28;45639;-61
2023/09/02 08:15:01;;;;;;;;;3.00;3.00;;;;;21.90;58.15;101233.16;5113574;27;45426;-61
2023/09/02 08:17:27;;;;;;;;;2.00;2.00;;;;;21.93;58.32;101227.63;5080517;27;45330;-61
2023/09/02 08:19:52;;;;;;;;;3.25;3.25;;;;;21.98;57.81;101219.38;5080888;27;45302;-61
2023/09/02 08:22:17;;;;;;;;;4.00;2.25;;;;;22.02;57.99;101205.72;5080612;27;45524;-61
2023/09/02 08:24:43;;;;;;;;;4.25;4.25;;;;;22.05;57.87;101200.22;5079003;28;47481;-61
2023/09/02 08:27:08;;;;;;;;;4.00;4.00;;;;;22.10;58.06;101212.47;5113138;27;45292;-61
2023/09/02 08:29:33;;;;;;;;;4.50;4.50;;;;;22.14;58.16;101211.34;5080209;27;46443;-61
2023/09/02 08:31:58;;;;;;;;;3.75;2.75;;;;;22.17;57.72;101204.00;5080183;28;45211;-61
2023/09/02 08:34:24;;;;;;;;;3.00;3.00;;;;;22.23;58.24;101211.69;5080309;28;45222;-61
2023/09/02 08:36:49;;;;;;;;;4.25;3.50;;;;;22.27;58.09;101214.22;5080301;27;45304;-61
2023/09/02 08:39:14;;;;;;;;;3.00;3.00;;;;;22.34;57.60;101216.47;5080085;27;47785;-61
2023/09/02 08:41:41;;;;;;;;;6.00;4.00;;;;;22.38;57.96;101211.84;5095799;27;45476;-61
2023/09/02 08:44:09;;;;;;;;;4.25;4.00;;;;;22.44;57.91;101214.16;5080080;28;46282;-61
2023/09/02 08:46:40;;;;;;;;;4.25;4.00;;;;;22.49;57.72;101212.09;5079749;27;45364;-61
2023/09/02 08:49:05;;;;;;;;;3.00;3.00;;;;;22.55;57.69;101216.22;5080061;27;45406;-61
2023/09/02 08:51:33;;;;;;;;;2.00;1.75;;;;;22.60;57.78;101211.47;5079948;27;45181;-61
2023/09/02 08:53:59;;;;;;;;;2.25;2.25;;;;;22.65;57.80;101209.38;5079827;27;45422;-61
2023/09/02 08:56:25;;;;;;;;;2.00;2.00;;;;;22.72;57.45;101202.72;5079853;27;45267;-61
2023/09/02 08:58:53;;;;;;;;;2.00;2.00;;;;;22.79;57.54;101202.34;5079980;27;45325;-61
2023/09/02 09:01:20;;;;;;;;;2.00;2.00;;;;;22.83;57.67;101199.41;5079681;27;45547;-61
2023/09/02 09:03:51;;;;;;;;;2.00;2.00;;;;;22.89;57.69;101203.53;5079782;27;45255;-61
2023/09/02 09:06:20;;;;;;;;;2.25;2.00;;;;;22.95;57.48;101194.28;5095520;27;45405;-61
2023/09/02 09:08:47;;;;;;;;;2.00;2.00;;;;;23.03;57.45;101192.88;5080242;27;45237;-62
2023/09/02 09:11:15;;;;;;;;;2.00;2.00;;;;;23.12;57.55;101193.28;5079690;27;45300;-61
2023/09/02 09:13:45;;;;;;;;;3.00;3.00;;;;;23.18;57.36;101191.13;5078409;28;46298;-61
2023/09/02 09:16:16;;;;;;;;;2.00;2.00;;;;;23.28;57.35;101186.09;5079360;27;45430;-61
2023/09/02 09:18:41;;;;;;;;;4.25;4.25;;;;;23.36;57.12;101182.94;5082787;27;45326;-61
2023/09/02 09:21:07;;;;;;;;;11.00;10.75;;;;;23.44;57.11;101185.13;5083066;27;45280;-62
2023/09/02 09:23:35;;;;;;;;;1.50;1.50;;;;;23.51;57.07;101184.66;5083578;27;45311;-61
2023/09/02 09:26:03;;;;;;;;;6.00;4.75;;;;;23.62;56.96;101186.69;5082839;27;45353;-62
2023/09/02 09:28:51;;;;;;;;;2.25;2.25;;;;;23.72;57.29;101191.47;5083602;27;45349;-62
2023/09/02 09:31:17;;;;;;;;;4.25;2.75;;;;;23.83;56.95;101197.03;5082659;28;45253;-62
2023/09/02 09:33:48;;;;;;;;;2.00;2.00;;;;;23.96;57.01;101202.50;5082922;28;46204;-62
2023/09/02 09:36:14;;;;;;;;;3.50;2.50;;;;;24.06;57.21;101202.78;5082897;28;45318;-62
2023/09/02 09:38:39;;;;;;;;;1.50;1.50;;;;;24.19;56.99;101211.78;5116094;27;45305;-63
2023/09/02 09:41:08;;;;;;;;;2.50;2.50;;;;;24.32;56.88;101218.06;5082824;27;45426;-62
2023/09/02 09:43:33;;;;;;;;;3.00;3.00;;;;;24.47;56.67;101228.78;5082808;27;46204;-62
2023/09/02 09:45:59;;;;;;;;;3.00;1.75;;;;;24.60;56.78;101226.13;5082582;27;45270;-62
2023/09/02 09:48:25;;;;;;;;;1.25;1.25;;;;;24.83;57.41;101224.66;5083122;27;45484;-62
2023/09/02 09:50:51;;;;;;;;;1.50;1.50;;;;;24.98;57.51;101220.06;5082882;28;45148;-62
2023/09/02 09:53:16;;;;;;;;;3.00;3.00;;;;;25.26;57.02;101228.94;5082568;28;46164;-62
2023/09/02 09:55:43;;;;;;;;;2.00;2.00;;;;;25.52;56.93;101231.69;5082707;27;45444;-62
2023/09/02 09:58:08;;;;;;;;;4.00;3.00;;;;;25.77;57.25;101237.06;5083085;27;45470;-62
2023/09/02 10:00:33;;;;;;;;;1.25;1.25;;;;;26.02;56.62;101246.06;5082740;27;45346;-62
2023/09/02 10:02:59;;;;;;;;;2.75;2.00;;;;;26.28;56.30;101244.22;5082715;27;45606;-62
2023/09/02 10:05:26;;;;;;;;;3.75;2.00;;;;;26.52;56.41;101251.47;5081242;28;45355;-62
2023/09/02 10:08:01;;;;;;;;;2.00;2.00;;;;;26.78;56.20;101254.13;5082850;27;45365;-62
2023/09/02 10:10:29;;;;;;;;;1.25;1.25;;;;;27.03;56.41;101257.63;5082356;27;45344;-62
2023/09/02 10:12:55;;;;;;;;;1.25;1.25;;;;;27.25;56.28;101249.63;5082508;27;46103;-62
2023/09/02 10:15:24;;;;;;;;;5.00;3.00;;;;;27.50;55.83;101253.16;5082505;27;45218;-62
2023/09/02 10:17:53;;;;;;;;;1.75;1.75;;;;;27.76;56.02;101249.38;5082333;27;45450;-62
2023/09/02 10:20:21;;;;;;;;;1.75;1.75;;;;;28.02;55.39;101256.25;5082617;27;45454;-62
2023/09/02 10:22:51;;;;;;;;;2.75;2.75;;;;;28.27;55.31;101254.31;5082497;27;45384;-62
2023/09/02 10:25:24;;;;;;;;;2.75;1.75;;;;;28.54;55.22;101247.59;5082069;27;45314;-62
2023/09/02 10:28:16;;;;;;;;;1.00;1.00;;;;;28.86;54.93;101252.22;5082435;27;45331;-62
2023/09/02 10:30:51;;;;;;;;;3.00;1.50;;;;;29.15;54.56;101263.25;5081248;27;45219;-62
2023/09/02 10:33:45;;;;;;;;;5.25;4.50;;;;;29.47;54.78;101256.09;5082396;27;46207;-61
2023/09/02 10:36:16;;;;;;;;;4.50;2.00;;;;;29.77;54.43;101257.13;5082115;28;45395;-63
2023/09/02 10:38:47;;;;;;;;;2.75;2.75;;;;;30.06;53.78;101249.16;5082463;28;45342;-62
2023/09/02 10:41:14;;;;;;;;;1.75;1.75;;;;;30.38;54.13;101255.41;5081944;27;45344;-62
2023/09/02 10:43:41;;;;;;;;;2.00;1.75;;;;;30.67;54.05;101243.75;5081830;28;46250;-62
2023/09/02 10:46:10;;;;;;;;;3.00;2.00;;;;;30.93;52.89;101239.50;5097519;27;45393;-62
2023/09/02 10:48:38;;;;;;;;;2.25;2.25;;;;;31.22;52.76;101241.34;5082134;27;45272;-63
2023/09/02 10:51:05;;;;;;;;;3.00;1.75;;;;;31.51;52.47;101247.72;5082068;27;45573;-62
2023/09/02 10:53:52;;;;;;;;;2.50;2.50;;;;;31.81;52.71;101252.09;5081621;28;45360;-63
2023/09/02 10:56:24;;;;;;;;;2.50;1.75;;;;;32.06;51.95;101245.13;5081658;27;45327;-63
2023/09/02 10:58:49;;;;;;;;;1.00;1.00;;;;;32.30;51.48;101246.44;5082198;27;45306;-62
2023/09/02 11:01:14;;;;;;;;;1.00;1.00;;;;;32.51;51.32;101246.16;5081646;27;45485;-62
2023/09/02 11:03:47;;;;;;;;;1.00;1.00;;;;;32.78;50.90;101252.59;5081759;28;45395;-62
2023/09/02 11:06:17;;;;;;;;;0.25;0.25;;;;;33.00;50.72;101251.25;5081862;27;45288;-62
2023/09/02 11:08:50;;;;;;;;;1.25;1.25;;;;;33.28;50.47;101261.16;5081858;28;45488;-62
2023/09/02 11:11:17;;;;;;;;;1.75;1.75;;;;;33.51;49.77;101256.06;5080199;28;45469;-62
2023/09/02 11:14:06;;;;;;;;;2.25;2.25;;;;;33.81;49.87;101262.03;5081364;27;45360;-62
2023/09/02 11:16:35;;;;;;;;;1.25;1.25;;;;;34.08;49.63;101266.47;5081405;27;45231;-63
2023/09/02 11:19:01;;;;;;;;;0.00;0.00;;;;;34.36;49.30;101266.25;5081802;28;45464;-62
2023/09/02 11:21:39;;;;;;;;;0.00;0.00;;;;;34.62;49.01;101260.69;5080049;28;45636;-62